This is the latest recevied weather packets stored in our database for station/object DD5ZT-13. If no packets are shown the sender has not sent any weather packets the latest 10 day(s).
| Time | Temp. | Humidity | Pressure | Rain* | Wind** | Luminosity | Snow |
|---|---|---|---|---|---|---|---|
| 1777799720 | 24.44° C | 54% | 1013.4 hPa | 0 mm | - | - | - |
| 1777799256 | 23.89° C | 55% | 1013.5 hPa | 0 mm | - | - | - |
| 1777799095 | 23.89° C | 55% | 1013.5 hPa | 0 mm | - | - | - |
| 1777797933 | 23.89° C | 56% | 1013.7 hPa | 0 mm | - | - | - |
| 1777797219 | 23.33° C | 54% | 1013.7 hPa | 0 mm | - | - | - |
| 1777796593 | 22.78° C | 54% | 1013.8 hPa | 0 mm | - | - | - |
| 1777795968 | 22.22° C | 55% | 1013.8 hPa | 0 mm | - | - | - |
| 1777795343 | 21.67° C | 55% | 1013.8 hPa | 0 mm | - | - | - |
| 1777794718 | 21.67° C | 59% | 1013.7 hPa | 0 mm | - | - | - |
| 1777793467 | 20.56° C | 62% | 1013.8 hPa | 0 mm | - | - | - |
| 1777792842 | 20° C | 70% | 1013.8 hPa | 0 mm | - | - | - |
| 1777792217 | 20° C | 65% | 1013.8 hPa | 0 mm | - | - | - |
| 1777791591 | 19.44° C | 65% | 1013.6 hPa | 0 mm | - | - | - |
| 1777790966 | 19.44° C | 67% | 1013.7 hPa | 0 mm | - | - | - |
| 1777790341 | 18.89° C | 68% | 1013.6 hPa | 0 mm | - | - | - |
| 1777789716 | 18.89° C | 69% | 1013.6 hPa | 0 mm | - | - | - |
| 1777789091 | 18.33° C | 74% | 1013.6 hPa | 0 mm | - | - | - |
| 1777788466 | 18.33° C | 72% | 1013.6 hPa | 0 mm | - | - | - |
| 1777787841 | 18.33° C | 71% | 1013.6 hPa | 0 mm | - | - | - |
| 1777787215 | 17.22° C | 73% | 1013.5 hPa | 0 mm | - | - | - |
| 1777786590 | 16.67° C | 73% | 1013.5 hPa | 0 mm | - | - | - |
| 1777785965 | 16.11° C | 79% | 1013.6 hPa | 0 mm | - | - | - |
| 1777785339 | 15.56° C | 80% | 1013.5 hPa | 0 mm | - | - | - |
| 1777784714 | 15.56° C | 79% | 1013.5 hPa | 0 mm | - | - | - |
| 1777750064 | 22.78° C | 43% | 1015.1 hPa | 0 mm | - | - | - |
* Rain latest hour (hover to see other rain measurements)
** Current wind speed in m/s (hover to see current wind gust speed)